createdAt,value
2022-11-07T00:00:23.052Z,28.95
2022-11-07T00:01:04.008Z,28.35
2022-11-07T00:01:44.014Z,28.13
2022-11-07T00:02:23.971Z,27.76
2022-11-07T00:03:04.125Z,27.20
2022-11-07T00:03:44.925Z,25.90
2022-11-07T00:04:25.048Z,24.92
2022-11-07T00:05:04.942Z,25.05
2022-11-07T00:05:48.000Z,24.94
2022-11-07T00:06:28.942Z,24.38
2022-11-07T00:07:09.977Z,24.70
2022-11-07T00:07:49.918Z,24.40
2022-11-07T00:08:31.762Z,23.99
2022-11-07T00:09:12.912Z,24.35
2022-11-07T00:09:52.987Z,24.10
2022-11-07T00:10:32.923Z,23.50
2022-11-07T00:11:14.002Z,23.89
2022-11-07T00:11:54.942Z,24.63
2022-11-07T00:12:36.486Z,23.84
2022-11-07T00:13:17.064Z,23.91
2022-11-07T00:13:57.003Z,23.77
2022-11-07T00:14:36.888Z,23.54
2022-11-07T00:15:17.946Z,24.00
2022-11-07T00:15:57.897Z,23.65
2022-11-07T00:16:52.923Z,23.16
2022-11-07T00:17:33.914Z,23.10
2022-11-07T00:18:13.982Z,22.92
2022-11-07T00:18:53.903Z,23.27
2022-11-07T00:19:34.006Z,22.56
2022-11-07T00:20:14.911Z,22.41
2022-11-07T00:20:55.987Z,22.49
2022-11-07T00:21:35.892Z,22.69
2022-11-07T00:22:15.917Z,22.75
2022-11-07T00:22:49.960Z,22.92
2022-11-07T00:23:36.923Z,21.93
2022-11-07T00:24:10.964Z,22.54
2022-11-07T00:24:57.897Z,22.72
2022-11-07T00:25:31.989Z,22.31
2022-11-07T00:26:20.902Z,22.84
2022-11-07T00:26:55.017Z,22.76
2022-11-07T00:27:35.996Z,22.54
2022-11-07T00:28:15.960Z,22.25
2022-11-07T00:28:55.875Z,22.58
2022-11-07T00:29:35.977Z,22.61
2022-11-07T00:30:16.896Z,22.60
2022-11-07T00:30:56.969Z,22.81
2022-11-07T00:31:37.911Z,22.99
2022-11-07T00:32:17.956Z,22.81
2022-11-07T00:33:00.337Z,23.96
2022-11-07T00:33:41.022Z,23.21
2022-11-07T00:34:21.871Z,22.42
2022-11-07T00:35:02.019Z,22.91
2022-11-07T00:35:41.881Z,22.84
2022-11-07T00:36:34.002Z,23.31
2022-11-07T00:37:15.086Z,22.60
2022-11-07T00:37:55.960Z,22.80
2022-11-07T00:38:36.908Z,22.76
2022-11-07T00:39:17.955Z,22.58
2022-11-07T00:39:57.873Z,22.60
2022-11-07T00:40:37.943Z,22.63
2022-11-07T00:41:18.879Z,22.65
2022-11-07T00:41:59.091Z,22.42
2022-11-07T00:42:39.879Z,22.73
2022-11-07T00:43:19.962Z,22.89
2022-11-07T00:44:00.900Z,22.99
2022-11-07T00:44:40.953Z,23.17
2022-11-07T00:45:20.873Z,23.04
2022-11-07T00:46:00.937Z,22.80
2022-11-07T00:46:40.864Z,23.39
2022-11-07T00:47:20.952Z,22.85
2022-11-07T00:48:01.858Z,22.67
2022-11-07T00:48:42.927Z,22.83
2022-11-07T00:49:22.954Z,22.61
2022-11-07T00:50:02.969Z,22.13
2022-11-07T00:50:42.867Z,22.00
2022-11-07T00:51:27.995Z,22.56
2022-11-07T00:52:07.858Z,22.44
2022-11-07T00:52:47.932Z,22.33
2022-11-07T00:53:28.854Z,22.33
2022-11-07T00:54:10.986Z,21.85
2022-11-07T00:54:50.855Z,21.46
2022-11-07T00:55:30.944Z,21.79
2022-11-07T00:56:14.864Z,21.51
2022-11-07T00:56:55.012Z,21.77
2022-11-07T00:57:34.869Z,21.67
2022-11-07T00:58:14.919Z,22.10
2022-11-07T00:58:55.856Z,21.75
2022-11-07T00:59:35.920Z,21.59
2022-11-07T01:00:17.864Z,22.27
2022-11-07T01:00:57.913Z,21.75
2022-11-07T01:01:39.949Z,21.24
2022-11-07T01:02:20.085Z,21.10
2022-11-07T01:03:19.854Z,21.04
2022-11-07T01:04:19.334Z,21.20
2022-11-07T01:05:16.856Z,21.55
2022-11-07T01:06:08.838Z,21.51
2022-11-07T01:06:45.029Z,21.20
2022-11-07T01:07:31.850Z,21.48
2022-11-07T01:08:05.891Z,21.40
2022-11-07T01:08:52.862Z,21.91
2022-11-07T01:09:28.981Z,21.80
2022-11-07T01:10:15.859Z,21.04
2022-11-07T01:10:56.845Z,20.94
2022-11-07T01:11:52.845Z,21.05
2022-11-07T01:12:48.843Z,21.04
2022-11-07T01:13:42.844Z,21.50
2022-11-07T01:14:37.848Z,21.26
2022-11-07T01:15:31.874Z,21.30
2022-11-07T01:16:25.866Z,20.63
2022-11-07T01:17:19.847Z,20.65
2022-11-07T01:18:13.841Z,20.35
2022-11-07T01:19:08.834Z,19.94
2022-11-07T01:20:02.840Z,19.41
2022-11-07T01:20:49.847Z,19.21
2022-11-07T01:21:23.887Z,18.65
2022-11-07T01:22:10.838Z,19.13
2022-11-07T01:22:44.916Z,19.29
2022-11-07T01:23:31.848Z,19.33
2022-11-07T01:24:05.898Z,18.92
2022-11-07T01:24:53.819Z,18.75
2022-11-07T01:25:27.906Z,19.02
2022-11-07T01:26:18.839Z,18.89
2022-11-07T01:26:53.970Z,18.20
2022-11-07T01:27:40.811Z,18.69
2022-11-07T01:28:15.919Z,19.35
2022-11-07T01:29:03.842Z,19.56
2022-11-07T01:29:37.920Z,19.23
2022-11-07T01:30:24.831Z,19.17
2022-11-07T01:30:58.885Z,19.71
2022-11-07T01:31:39.835Z,19.51
2022-11-07T01:32:19.884Z,19.42
2022-11-07T01:32:59.808Z,19.40
2022-11-07T01:33:39.913Z,20.34
2022-11-07T01:34:19.803Z,19.44
2022-11-07T01:34:59.905Z,18.75
2022-11-07T01:35:40.823Z,19.11
2022-11-07T01:36:23.908Z,19.38
2022-11-07T01:37:04.857Z,19.49
2022-11-07T01:37:44.912Z,19.06
2022-11-07T01:38:24.820Z,18.74
2022-11-07T01:39:05.920Z,18.83
2022-11-07T01:39:46.820Z,19.11
2022-11-07T01:40:28.085Z,18.88
2022-11-07T01:41:26.828Z,19.20
2022-11-07T01:42:13.843Z,19.09
2022-11-07T01:43:07.822Z,18.08
2022-11-07T01:44:20.835Z,18.01
2022-11-07T01:45:14.814Z,18.30
2022-11-07T01:46:08.816Z,18.60
2022-11-07T01:47:03.816Z,18.95
2022-11-07T01:47:45.844Z,19.54
2022-11-07T01:48:25.903Z,18.88
2022-11-07T01:49:29.807Z,19.11
2022-11-07T01:50:12.868Z,19.64
2022-11-07T01:50:52.800Z,19.46
2022-11-07T01:51:32.903Z,19.48
2022-11-07T01:52:23.798Z,19.36
2022-11-07T01:53:04.825Z,20.42
2022-11-07T01:53:38.858Z,20.27
2022-11-07T01:54:31.807Z,20.08
2022-11-07T01:55:25.870Z,20.14
2022-11-07T01:56:19.803Z,21.65
2022-11-07T01:56:53.863Z,21.64
2022-11-07T01:57:59.799Z,21.88
2022-11-07T01:58:40.794Z,22.05
2022-11-07T01:59:38.789Z,21.88
2022-11-07T02:00:35.804Z,22.35
2022-11-07T02:01:30.904Z,22.02
2022-11-07T02:02:24.836Z,22.13
2022-11-07T02:03:25.787Z,21.92
2022-11-07T02:04:06.839Z,21.04
2022-11-07T02:04:46.860Z,20.71
2022-11-07T02:05:50.780Z,21.25
2022-11-07T02:07:21.937Z,21.96
2022-11-07T02:08:02.780Z,21.99
2022-11-07T02:08:45.520Z,22.46
2022-11-07T02:09:26.884Z,22.71
2022-11-07T02:10:06.889Z,22.98
2022-11-07T02:10:47.778Z,24.16
2022-11-07T02:11:27.867Z,24.40
2022-11-07T02:12:08.779Z,24.56
2022-11-07T02:12:48.951Z,24.38
2022-11-07T02:13:35.766Z,24.45
2022-11-07T02:14:21.851Z,24.79
2022-11-07T02:15:02.815Z,25.63
2022-11-07T02:15:43.861Z,25.49
2022-11-07T02:16:23.777Z,25.63
2022-11-07T02:17:04.054Z,26.98
2022-11-07T02:17:43.777Z,26.51
2022-11-07T02:18:23.864Z,26.26
2022-11-07T02:19:03.767Z,26.17
2022-11-07T02:19:48.995Z,26.91
2022-11-07T02:20:29.808Z,26.45
2022-11-07T02:21:59.867Z,25.98
2022-11-07T02:23:03.795Z,26.27
2022-11-07T02:23:55.300Z,26.61
2022-11-07T02:24:38.767Z,26.21
2022-11-07T02:25:22.847Z,26.52
2022-11-07T02:26:03.788Z,26.65
2022-11-07T02:26:44.844Z,26.80
2022-11-07T02:27:27.787Z,27.06
2022-11-07T02:28:11.891Z,26.96
2022-11-07T02:28:53.759Z,26.63
2022-11-07T02:29:33.836Z,26.70
2022-11-07T02:30:27.764Z,26.58
2022-11-07T02:31:14.774Z,26.69
2022-11-07T02:32:23.765Z,26.33
2022-11-07T02:33:28.784Z,25.98
2022-11-07T02:34:22.756Z,25.51
2022-11-07T02:35:38.757Z,26.21
2022-11-07T02:36:35.794Z,26.23
2022-11-07T02:37:59.746Z,25.77
2022-11-07T02:38:53.749Z,25.34
2022-11-07T02:39:47.755Z,25.08
2022-11-07T02:40:44.767Z,24.70
2022-11-07T02:41:48.776Z,24.01
2022-11-07T02:42:51.743Z,24.88
2022-11-07T02:43:46.773Z,24.29
2022-11-07T02:44:40.746Z,24.30
2022-11-07T02:45:40.742Z,24.19
2022-11-07T02:46:35.759Z,24.33
2022-11-07T02:47:16.775Z,24.20
2022-11-07T02:47:56.835Z,24.44
2022-11-07T02:48:39.754Z,23.91
2022-11-07T02:49:19.829Z,23.80
2022-11-07T02:49:59.744Z,23.58
2022-11-07T02:50:40.007Z,23.96
2022-11-07T02:51:20.718Z,24.08
2022-11-07T02:52:01.657Z,24.16
2022-11-07T02:52:42.783Z,24.30
2022-11-07T02:53:22.849Z,24.81
2022-11-07T02:54:02.752Z,24.71
2022-11-07T02:54:42.841Z,24.11
2022-11-07T02:55:22.739Z,23.15
2022-11-07T02:56:02.821Z,24.05
2022-11-07T02:56:42.737Z,24.74
2022-11-07T02:57:22.838Z,24.46
2022-11-07T02:58:02.744Z,23.86
2022-11-07T02:58:43.783Z,23.76
2022-11-07T02:59:26.968Z,23.55
2022-11-07T03:00:08.798Z,24.51
2022-11-07T03:00:49.738Z,24.17
2022-11-07T03:01:29.881Z,23.91
2022-11-07T03:02:09.860Z,24.36
2022-11-07T03:02:50.895Z,24.24
2022-11-07T03:03:30.740Z,23.66
2022-11-07T03:04:10.810Z,24.46
2022-11-07T03:04:50.713Z,23.95
2022-11-07T03:05:30.815Z,24.64
2022-11-07T03:06:13.734Z,24.76
2022-11-07T03:06:53.826Z,24.18
2022-11-07T03:07:33.911Z,23.66
2022-11-07T03:08:13.788Z,23.95
2022-11-07T03:08:53.749Z,24.09
2022-11-07T03:09:33.843Z,24.67
2022-11-07T03:10:14.712Z,24.33
2022-11-07T03:10:54.788Z,23.65
2022-11-07T03:11:34.699Z,23.67
2022-11-07T03:12:14.804Z,23.54
2022-11-07T03:12:54.731Z,23.92
2022-11-07T03:13:34.893Z,24.48
2022-11-07T03:14:14.815Z,24.48
2022-11-07T03:14:54.829Z,24.14
2022-11-07T03:15:35.711Z,23.48
2022-11-07T03:16:17.780Z,23.63
2022-11-07T03:16:57.702Z,24.56
2022-11-07T03:17:37.778Z,24.80
2022-11-07T03:18:17.699Z,25.14
2022-11-07T03:18:57.804Z,24.63
2022-11-07T03:19:37.738Z,24.73
2022-11-07T03:20:17.783Z,25.19
2022-11-07T03:20:57.714Z,24.10
2022-11-07T03:21:37.791Z,23.76
2022-11-07T03:22:17.701Z,24.89
2022-11-07T03:22:57.776Z,24.88
2022-11-07T03:23:38.708Z,24.33
2022-11-07T03:24:18.771Z,24.24
2022-11-07T03:25:02.711Z,24.59
2022-11-07T03:25:42.812Z,25.33
2022-11-07T03:26:22.722Z,24.80
2022-11-07T03:27:02.847Z,24.05
2022-11-07T03:27:42.709Z,24.33
2022-11-07T03:28:22.835Z,24.06
2022-11-07T03:29:03.702Z,24.88
2022-11-07T03:29:43.775Z,25.17
2022-11-07T03:30:24.702Z,25.10
2022-11-07T03:31:09.802Z,24.58
2022-11-07T03:31:49.708Z,24.30
2022-11-07T03:32:29.784Z,24.20
2022-11-07T03:33:09.736Z,23.61
2022-11-07T03:33:49.806Z,24.67
2022-11-07T03:34:29.704Z,24.56
2022-11-07T03:35:09.761Z,23.70
2022-11-07T03:35:56.700Z,23.23
2022-11-07T03:36:30.872Z,23.71
2022-11-07T03:37:17.683Z,24.10
2022-11-07T03:37:52.758Z,23.73
2022-11-07T03:38:39.714Z,23.69
2022-11-07T03:39:13.772Z,24.14
2022-11-07T03:40:00.686Z,24.04
2022-11-07T03:40:34.778Z,23.96
2022-11-07T03:41:23.715Z,25.00
2022-11-07T03:41:57.784Z,25.14
2022-11-07T03:42:49.692Z,24.63
2022-11-07T03:43:23.775Z,24.54
2022-11-07T03:44:10.727Z,24.80
2022-11-07T03:44:44.787Z,24.64
2022-11-07T03:45:31.686Z,25.29
2022-11-07T03:46:05.793Z,26.02
2022-11-07T03:46:45.851Z,24.75
2022-11-07T03:47:25.761Z,24.51
2022-11-07T03:48:05.703Z,24.79
2022-11-07T03:48:45.768Z,24.58
2022-11-07T03:49:26.680Z,24.67
2022-11-07T03:50:06.777Z,24.59
2022-11-07T03:50:46.664Z,24.69
2022-11-07T03:51:26.760Z,24.40
2022-11-07T03:52:06.695Z,24.21
2022-11-07T03:52:46.792Z,25.42
2022-11-07T03:53:26.976Z,25.91
2022-11-07T03:54:07.760Z,25.54
2022-11-07T03:54:48.667Z,25.38
2022-11-07T03:55:28.757Z,25.02
2022-11-07T03:56:17.678Z,25.34
2022-11-07T03:56:57.779Z,25.69
2022-11-07T03:57:37.676Z,25.56
2022-11-07T03:58:17.780Z,25.44
2022-11-07T03:58:57.683Z,25.56
2022-11-07T03:59:37.796Z,26.00
2022-11-07T04:00:20.662Z,25.50
2022-11-07T04:01:00.734Z,25.79
2022-11-07T04:01:40.733Z,25.50
2022-11-07T04:02:20.956Z,25.58
2022-11-07T04:03:00.768Z,25.89
2022-11-07T04:03:40.749Z,26.38
2022-11-07T04:04:20.667Z,26.13
2022-11-07T04:05:00.746Z,26.09
2022-11-07T04:05:40.677Z,26.05
2022-11-07T04:06:22.851Z,25.46
2022-11-07T04:07:02.669Z,25.27
2022-11-07T04:07:42.757Z,26.35
2022-11-07T04:08:23.684Z,26.61
2022-11-07T04:09:03.744Z,26.33
2022-11-07T04:09:44.655Z,26.09
2022-11-07T04:10:24.723Z,26.55
2022-11-07T04:11:04.671Z,26.56
2022-11-07T04:12:03.130Z,26.41
2022-11-07T04:13:01.674Z,27.05
2022-11-07T04:14:00.705Z,26.80
2022-11-07T04:14:53.537Z,26.31
2022-11-07T04:15:59.670Z,26.41
2022-11-07T04:16:52.565Z,27.25
2022-11-07T04:17:39.658Z,27.34
2022-11-07T04:18:13.804Z,27.06
2022-11-07T04:19:01.753Z,27.20
2022-11-07T04:19:35.736Z,27.14
2022-11-07T04:20:22.640Z,27.31
2022-11-07T04:20:56.726Z,27.24
2022-11-07T04:21:43.652Z,26.71
2022-11-07T04:22:17.773Z,27.24
2022-11-07T04:23:04.647Z,27.76
2022-11-07T04:23:38.712Z,27.41
2022-11-07T04:24:25.688Z,27.36
2022-11-07T04:24:59.724Z,27.60
2022-11-07T04:26:05.663Z,27.54
2022-11-07T04:26:58.164Z,26.86
2022-11-07T04:27:50.638Z,27.21
2022-11-07T04:28:24.766Z,27.14
2022-11-07T04:29:11.636Z,27.27
2022-11-07T04:29:52.645Z,26.49
2022-11-07T04:30:46.668Z,27.24
2022-11-07T04:31:40.648Z,27.15
2022-11-07T04:32:36.639Z,26.91
2022-11-07T04:33:30.655Z,26.99
2022-11-07T04:34:24.639Z,26.70
2022-11-07T04:35:12.640Z,27.17
2022-11-07T04:35:46.690Z,26.81
2022-11-07T04:36:33.620Z,27.20
2022-11-07T04:37:07.750Z,27.39
2022-11-07T04:37:55.643Z,26.67
2022-11-07T04:38:29.698Z,26.76
2022-11-07T04:39:16.637Z,27.08
2022-11-07T04:39:50.700Z,26.73
2022-11-07T04:40:37.639Z,26.83
2022-11-07T04:41:11.703Z,27.48
2022-11-07T04:41:58.629Z,26.65
2022-11-07T04:42:32.688Z,26.96
2022-11-07T04:43:19.619Z,27.94
2022-11-07T04:43:53.707Z,27.58
2022-11-07T04:44:40.631Z,27.04
2022-11-07T04:45:15.707Z,27.31
2022-11-07T04:46:02.661Z,27.14
2022-11-07T04:46:36.696Z,27.06
2022-11-07T04:47:23.632Z,26.91
2022-11-07T04:47:57.696Z,27.39
2022-11-07T04:48:44.638Z,26.86
2022-11-07T04:49:18.680Z,27.65
2022-11-07T04:50:05.635Z,27.11
2022-11-07T04:50:39.720Z,27.31
2022-11-07T04:51:29.634Z,27.25
2022-11-07T04:52:03.770Z,27.14
2022-11-07T04:52:52.630Z,26.90
2022-11-07T04:53:26.682Z,26.25
2022-11-07T04:54:19.612Z,26.58
2022-11-07T04:54:53.683Z,26.75
2022-11-07T04:55:40.608Z,26.61
2022-11-07T04:56:14.715Z,26.86
2022-11-07T04:56:54.649Z,26.73
2022-11-07T04:57:34.678Z,26.33
2022-11-07T04:58:16.637Z,26.00
2022-11-07T04:58:56.697Z,27.19
2022-11-07T04:59:36.620Z,26.96
2022-11-07T05:00:17.699Z,26.38
2022-11-07T05:00:57.608Z,26.15
2022-11-07T05:01:37.750Z,26.29
2022-11-07T05:02:19.747Z,26.44
2022-11-07T05:02:59.996Z,26.48
2022-11-07T05:03:42.130Z,26.05
2022-11-07T05:04:22.702Z,25.90
2022-11-07T05:05:03.606Z,26.36
2022-11-07T05:05:43.674Z,26.36
2022-11-07T05:06:25.620Z,26.02
2022-11-07T05:07:05.661Z,26.06
2022-11-07T05:07:46.633Z,26.26
2022-11-07T05:08:26.667Z,26.48
2022-11-07T05:09:06.611Z,26.08
2022-11-07T05:09:46.739Z,25.19
2022-11-07T05:10:35.632Z,25.42
2022-11-07T05:11:15.706Z,25.75
2022-11-07T05:11:55.602Z,25.70
2022-11-07T05:12:35.696Z,25.36
2022-11-07T05:13:15.885Z,25.11
2022-11-07T05:13:56.683Z,25.01
2022-11-07T05:14:39.587Z,25.15
2022-11-07T05:15:20.659Z,24.38
2022-11-07T05:16:00.602Z,24.86
2022-11-07T05:16:40.678Z,25.20
2022-11-07T05:17:27.918Z,24.79
2022-11-07T05:18:08.681Z,25.10
2022-11-07T05:18:48.614Z,25.50
2022-11-07T05:19:28.661Z,26.67
2022-11-07T05:20:09.586Z,27.36
2022-11-07T05:20:49.663Z,26.81
2022-11-07T05:21:29.606Z,26.64
2022-11-07T05:22:28.468Z,28.46
2022-11-07T05:23:19.249Z,27.79
2022-11-07T05:24:06.693Z,28.36
2022-11-07T05:25:00.591Z,28.86
2022-11-07T05:25:55.703Z,28.45
2022-11-07T05:26:35.588Z,27.89
2022-11-07T05:27:24.827Z,27.65
2022-11-07T05:28:04.588Z,27.25
2022-11-07T05:28:44.660Z,26.96
2022-11-07T05:29:24.606Z,27.05
2022-11-07T05:30:04.964Z,27.15
2022-11-07T05:30:47.576Z,26.39
2022-11-07T05:31:27.654Z,26.13
2022-11-07T05:32:07.584Z,26.19
2022-11-07T05:32:47.670Z,25.77
2022-11-07T05:33:27.576Z,25.74
2022-11-07T05:34:12.108Z,25.80
2022-11-07T05:34:55.579Z,25.01
2022-11-07T05:35:35.648Z,24.71
2022-11-07T05:36:21.582Z,25.11
2022-11-07T05:37:01.685Z,25.01
2022-11-07T05:37:41.600Z,24.71
2022-11-07T05:38:21.680Z,24.54
2022-11-07T05:39:01.596Z,24.13
2022-11-07T05:39:42.652Z,23.91
2022-11-07T05:40:23.596Z,24.17
2022-11-07T05:41:03.743Z,23.77
2022-11-07T05:41:43.569Z,24.21
2022-11-07T05:42:41.677Z,24.05
2022-11-07T05:43:22.617Z,24.30
2022-11-07T05:44:04.095Z,23.98
2022-11-07T05:44:43.601Z,24.41
2022-11-07T05:45:30.614Z,24.20
2022-11-07T05:46:24.569Z,23.58
2022-11-07T05:47:18.577Z,23.33
2022-11-07T05:48:17.580Z,23.98
2022-11-07T05:49:11.588Z,24.88
2022-11-07T05:50:05.574Z,26.83
2022-11-07T05:50:52.630Z,30.38
2022-11-07T05:51:26.667Z,31.92
2022-11-07T05:52:13.588Z,33.01
2022-11-07T05:52:47.718Z,34.14
2022-11-07T05:53:35.639Z,35.35
2022-11-07T05:54:09.648Z,35.99
2022-11-07T05:54:56.564Z,37.46
2022-11-07T05:55:31.664Z,37.96
2022-11-07T05:56:12.575Z,38.54
2022-11-07T05:56:52.651Z,38.24
2022-11-07T05:57:35.578Z,36.92
2022-11-07T05:58:17.786Z,36.01
2022-11-07T05:58:57.590Z,35.80
2022-11-07T05:59:37.616Z,35.54
2022-11-07T06:00:19.569Z,33.45
2022-11-07T06:00:59.624Z,31.46
2022-11-07T06:01:40.728Z,31.35
2022-11-07T06:02:21.791Z,29.55
2022-11-07T06:03:04.626Z,28.00
2022-11-07T06:03:44.617Z,26.49
2022-11-07T06:04:24.552Z,26.09
2022-11-07T06:05:05.717Z,25.64
2022-11-07T06:05:46.546Z,24.73
2022-11-07T06:06:26.703Z,24.16
2022-11-07T06:07:06.562Z,23.79
2022-11-07T06:07:48.659Z,23.46
2022-11-07T06:08:29.567Z,23.60
2022-11-07T06:09:09.615Z,23.48
2022-11-07T06:09:50.565Z,23.91
2022-11-07T06:10:32.625Z,23.73
2022-11-07T06:11:13.534Z,23.38
2022-11-07T06:11:53.623Z,23.30
2022-11-07T06:12:33.564Z,23.10
2022-11-07T06:13:18.026Z,23.20
2022-11-07T06:14:01.547Z,22.83
2022-11-07T06:14:41.698Z,22.39
2022-11-07T06:15:21.548Z,22.74
2022-11-07T06:16:01.627Z,23.16
2022-11-07T06:16:42.539Z,22.71
2022-11-07T06:17:24.940Z,22.84
2022-11-07T06:18:09.568Z,22.70
2022-11-07T06:18:49.652Z,23.25
2022-11-07T06:19:30.548Z,22.90
2022-11-07T06:20:12.139Z,22.94
2022-11-07T06:20:53.528Z,22.64
2022-11-07T06:21:33.648Z,22.69
2022-11-07T06:22:13.566Z,22.20
2022-11-07T06:22:53.604Z,21.86
2022-11-07T06:23:35.581Z,22.26
2022-11-07T06:24:16.802Z,22.35
2022-11-07T06:24:57.553Z,22.63
2022-11-07T06:25:38.678Z,22.48
2022-11-07T06:26:18.558Z,22.08
2022-11-07T06:27:13.541Z,22.17
2022-11-07T06:28:15.591Z,22.60
2022-11-07T06:28:56.632Z,22.52
2022-11-07T06:29:36.608Z,22.41
2022-11-07T06:30:17.559Z,22.94
2022-11-07T06:30:57.634Z,23.54
2022-11-07T06:31:38.537Z,23.08
2022-11-07T06:32:18.614Z,23.46
2022-11-07T06:32:58.519Z,23.80
2022-11-07T06:33:39.659Z,23.71
2022-11-07T06:34:20.577Z,23.19
2022-11-07T06:35:00.676Z,23.04
2022-11-07T06:35:42.544Z,22.89
2022-11-07T06:36:36.543Z,22.70
2022-11-07T06:37:30.512Z,22.60
2022-11-07T06:38:27.530Z,22.92
2022-11-07T06:39:22.507Z,23.39
2022-11-07T06:40:17.580Z,24.33
2022-11-07T06:41:22.532Z,24.83
2022-11-07T06:42:16.589Z,24.91
2022-11-07T06:43:21.512Z,24.84
2022-11-07T06:44:15.557Z,24.45
2022-11-07T06:44:55.547Z,23.56
2022-11-07T06:45:35.603Z,22.69
2022-11-07T06:46:19.546Z,29.40
2022-11-07T06:46:59.578Z,114.89
2022-11-07T06:47:41.534Z,294.74
2022-11-07T06:48:21.673Z,219.60
2022-11-07T06:49:03.542Z,94.74
2022-11-07T06:49:43.597Z,32.63
2022-11-07T06:50:23.526Z,25.42
2022-11-07T06:51:06.625Z,24.16
2022-11-07T06:51:48.073Z,22.69
2022-11-07T06:52:28.570Z,22.41
2022-11-07T06:53:15.096Z,22.85
2022-11-07T06:53:55.617Z,23.31
2022-11-07T06:54:35.505Z,23.52
2022-11-07T06:55:15.612Z,23.70
2022-11-07T06:55:55.573Z,23.80
2022-11-07T06:56:35.668Z,23.65
2022-11-07T06:57:16.496Z,23.33
2022-11-07T06:57:57.525Z,23.51
2022-11-07T06:58:38.504Z,22.38
2022-11-07T06:59:18.568Z,22.73
2022-11-07T06:59:58.503Z,22.92
2022-11-07T07:00:40.716Z,21.80
2022-11-07T07:01:21.737Z,21.77
2022-11-07T07:02:01.649Z,21.89
2022-11-07T07:02:57.960Z,22.36
2022-11-07T07:03:40.285Z,22.74
2022-11-07T07:04:21.497Z,22.88
2022-11-07T07:05:01.617Z,22.67
2022-11-07T07:05:43.494Z,22.05
2022-11-07T07:06:31.520Z,22.08
2022-11-07T07:07:25.532Z,22.33
2022-11-07T07:08:21.500Z,22.30
2022-11-07T07:09:16.525Z,22.63
2022-11-07T07:10:11.513Z,22.81
2022-11-07T07:11:05.487Z,22.99
2022-11-07T07:11:52.487Z,23.01
2022-11-07T07:12:26.625Z,22.00
2022-11-07T07:13:15.848Z,22.02
2022-11-07T07:13:50.551Z,22.86
2022-11-07T07:14:37.491Z,22.30
2022-11-07T07:15:11.598Z,22.49
2022-11-07T07:16:02.497Z,22.64
2022-11-07T07:16:36.588Z,22.46
2022-11-07T07:17:18.490Z,22.86
2022-11-07T07:17:58.544Z,22.46
2022-11-07T07:18:39.462Z,22.30
2022-11-07T07:19:19.575Z,23.05
2022-11-07T07:19:59.695Z,22.49
2022-11-07T07:20:39.561Z,22.29
2022-11-07T07:21:21.478Z,22.26
2022-11-07T07:22:01.628Z,22.84
2022-11-07T07:22:41.489Z,23.13
2022-11-07T07:23:23.570Z,22.70
2022-11-07T07:24:04.494Z,22.65
2022-11-07T07:24:44.529Z,22.99
2022-11-07T07:25:24.460Z,23.08
2022-11-07T07:26:04.621Z,22.19
2022-11-07T07:26:44.487Z,22.60
2022-11-07T07:27:24.797Z,22.27
2022-11-07T07:28:04.492Z,22.27
2022-11-07T07:28:44.672Z,61.55
2022-11-07T07:29:25.491Z,136.35
2022-11-07T07:30:05.546Z,112.82
2022-11-07T07:30:51.536Z,38.86
2022-11-07T07:31:37.557Z,29.10
2022-11-07T07:32:17.536Z,23.23
2022-11-07T07:32:57.596Z,22.33
2022-11-07T07:33:38.575Z,22.29
2022-11-07T07:34:18.551Z,22.90
2022-11-07T07:34:59.463Z,23.06
2022-11-07T07:35:39.553Z,23.50
2022-11-07T07:36:21.072Z,23.73
2022-11-07T07:37:01.535Z,23.38
2022-11-07T07:37:41.460Z,24.49
2022-11-07T07:38:21.509Z,25.17
2022-11-07T07:39:02.471Z,24.63
2022-11-07T07:39:42.582Z,24.71
2022-11-07T07:40:23.477Z,24.36
2022-11-07T07:41:04.711Z,24.10
2022-11-07T07:41:44.471Z,23.25
2022-11-07T07:42:24.516Z,22.56
2022-11-07T07:43:04.455Z,22.46
2022-11-07T07:43:44.545Z,22.63
2022-11-07T07:44:25.493Z,23.74
2022-11-07T07:45:05.579Z,23.50
2022-11-07T07:45:45.480Z,22.96
2022-11-07T07:46:29.616Z,22.34
2022-11-07T07:47:11.452Z,22.21
2022-11-07T07:47:52.997Z,20.96
2022-11-07T07:48:33.464Z,20.79
2022-11-07T07:49:14.580Z,21.25
2022-11-07T07:49:54.482Z,20.77
2022-11-07T07:50:34.510Z,20.23
2022-11-07T07:51:15.456Z,32.28
2022-11-07T07:51:55.577Z,69.34
2022-11-07T07:52:35.453Z,87.97
2022-11-07T07:53:15.751Z,106.71
2022-11-07T07:53:56.496Z,61.61
2022-11-07T07:54:37.635Z,25.16
2022-11-07T07:55:18.492Z,21.23
2022-11-07T07:56:06.374Z,19.42
2022-11-07T07:56:46.441Z,18.39
2022-11-07T07:57:26.529Z,17.99
2022-11-07T07:58:06.444Z,17.86
2022-11-07T07:58:47.559Z,18.08
2022-11-07T07:59:27.471Z,18.34
2022-11-07T08:00:07.615Z,18.71
2022-11-07T08:00:48.566Z,18.63
2022-11-07T08:01:28.591Z,18.42
2022-11-07T08:02:08.491Z,18.11
2022-11-07T08:02:48.532Z,17.99
2022-11-07T08:03:44.560Z,18.05
2022-11-07T08:04:29.522Z,17.75
2022-11-07T08:05:10.474Z,17.67
2022-11-07T08:05:57.495Z,17.54
2022-11-07T08:06:51.483Z,17.30
2022-11-07T08:07:45.448Z,17.34
2022-11-07T08:08:39.488Z,16.90
2022-11-07T08:09:33.451Z,17.70
2022-11-07T08:10:41.608Z,17.94
2022-11-07T08:11:22.468Z,18.04
2022-11-07T08:12:04.553Z,18.36
2022-11-07T08:12:51.457Z,18.85
2022-11-07T08:13:32.561Z,19.67
2022-11-07T08:14:12.459Z,20.49
2022-11-07T08:14:52.508Z,20.75
2022-11-07T08:15:32.454Z,20.81
2022-11-07T08:16:13.500Z,21.10
2022-11-07T08:16:53.442Z,21.56
2022-11-07T08:17:33.476Z,21.65
2022-11-07T08:18:14.460Z,21.30
2022-11-07T08:18:54.542Z,21.44
2022-11-07T08:19:34.435Z,21.80
2022-11-07T08:20:20.588Z,21.70
2022-11-07T08:21:02.559Z,21.59
2022-11-07T08:21:42.504Z,22.25
2022-11-07T08:22:22.450Z,22.42
2022-11-07T08:23:15.984Z,22.26
2022-11-07T08:23:59.456Z,21.08
2022-11-07T08:24:39.560Z,19.26
2022-11-07T08:25:19.433Z,19.52
2022-11-07T08:26:04.479Z,19.91
2022-11-07T08:26:45.453Z,19.66
2022-11-07T08:27:32.489Z,19.17
2022-11-07T08:28:26.630Z,19.25
2022-11-07T08:29:20.419Z,19.41
2022-11-07T08:30:18.141Z,18.74
2022-11-07T08:31:24.430Z,18.20
2022-11-07T08:32:19.448Z,18.60
2022-11-07T08:33:00.462Z,17.98
2022-11-07T08:33:41.547Z,18.44
2022-11-07T08:34:21.416Z,18.16
2022-11-07T08:35:01.500Z,17.59
2022-11-07T08:35:42.837Z,16.70
2022-11-07T08:36:23.520Z,16.38
2022-11-07T08:37:04.420Z,16.88
2022-11-07T08:37:44.559Z,16.30
2022-11-07T08:38:24.536Z,15.95
2022-11-07T08:39:04.516Z,15.99
2022-11-07T08:39:44.432Z,16.44
2022-11-07T08:40:24.513Z,16.26
2022-11-07T08:41:05.419Z,16.63
2022-11-07T08:41:45.506Z,16.80
2022-11-07T08:42:26.395Z,16.21
2022-11-07T08:43:07.479Z,15.96
2022-11-07T08:43:47.448Z,16.38
2022-11-07T08:44:27.548Z,16.61
2022-11-07T08:45:07.397Z,16.99
2022-11-07T08:45:47.865Z,16.59
2022-11-07T08:46:27.397Z,16.55
2022-11-07T08:47:10.493Z,17.19
2022-11-07T08:47:51.481Z,65.88
2022-11-07T08:48:31.546Z,169.51
2022-11-07T08:49:11.395Z,143.31
2022-11-07T08:49:51.449Z,26.92
2022-11-07T08:50:33.397Z,18.70
2022-11-07T08:51:14.511Z,17.13
2022-11-07T08:51:54.386Z,16.70
2022-11-07T08:52:34.464Z,16.84
2022-11-07T08:53:15.575Z,16.16
2022-11-07T08:53:55.533Z,15.27
2022-11-07T08:54:35.407Z,14.94
2022-11-07T08:55:16.437Z,15.11
2022-11-07T08:55:57.366Z,15.65
2022-11-07T08:56:39.440Z,15.31
2022-11-07T08:57:20.407Z,14.98
2022-11-07T08:58:15.179Z,14.63
2022-11-07T08:58:55.379Z,14.23
2022-11-07T08:59:42.428Z,13.24
2022-11-07T09:00:36.473Z,13.21
2022-11-07T09:01:30.502Z,13.21
2022-11-07T09:03:50.696Z,13.10
2022-11-07T09:04:47.534Z,12.82
2022-11-07T09:05:41.433Z,12.95
2022-11-07T09:06:35.393Z,12.93
2022-11-07T09:07:29.379Z,12.36
2022-11-07T09:08:23.414Z,12.13
2022-11-07T09:09:17.362Z,11.90
2022-11-07T09:10:04.405Z,11.16
2022-11-07T09:10:38.952Z,11.45
2022-11-07T09:11:28.380Z,11.59
2022-11-07T09:12:02.792Z,11.64
2022-11-07T09:12:58.374Z,11.32
2022-11-07T09:13:32.459Z,10.93
2022-11-07T09:14:19.431Z,10.84
2022-11-07T09:14:53.411Z,11.35
2022-11-07T09:15:34.403Z,10.79
2022-11-07T09:16:17.395Z,10.44
2022-11-07T09:16:58.445Z,10.21
2022-11-07T09:17:38.472Z,10.57
2022-11-07T09:18:18.388Z,11.01
2022-11-07T09:18:59.463Z,10.79
2022-11-07T09:19:39.360Z,10.64
2022-11-07T09:20:20.487Z,10.31